Time;durP1;ratioP1;P1;durP2;ratioP2;P2;SDS_P1;SDS_P2;PMS_P1;PMS_P2;Temp;Humidity;BMP_temperature;BMP_pressure;BME280_temperature;BME280_humidity;BME280_pressure;Samples;Min_cycle;Max_cycle;Signal;HPM_P1;HPM_P2
2022/12/07 00:02:51;;;;;;;23.07;10.20;;;;;;;2.65;100.00;100014.71;3536927;83;26272;-91
2022/12/07 00:07:52;;;;;;;22.47;9.97;;;;;;;2.65;100.00;100011.19;3531342;81;98497;-92
2022/12/07 00:12:53;;;;;;;25.50;10.23;;;;;;;2.67;100.00;100017.10;3533180;82;26765;-91
2022/12/07 00:17:53;;;;;;;21.57;10.10;;;;;;;2.70;100.00;100010.98;3524922;82;98856;-90
2022/12/07 00:22:54;;;;;;;22.33;10.83;;;;;;;2.72;100.00;100002.73;3541872;81;34270;-91
2022/12/07 00:27:56;;;;;;;24.93;11.00;;;;;;;2.76;100.00;100011.80;3530705;82;98856;-91
2022/12/07 00:32:57;;;;;;;28.43;11.00;;;;;;;2.77;100.00;100003.07;3541696;83;33800;-90
2022/12/07 00:37:58;;;;;;;26.83;12.53;;;;;;;2.79;100.00;99998.11;3542872;81;98745;-90
2022/12/07 00:42:58;;;;;;;25.00;11.57;;;;;;;2.81;100.00;99995.84;3541070;82;34301;-90
2022/12/07 00:47:59;;;;;;;27.97;12.73;;;;;;;2.82;100.00;99996.06;3526315;81;98575;-90
2022/12/07 00:53:00;;;;;;;24.47;11.50;;;;;;;2.82;100.00;99990.08;3547561;83;34464;-91
2022/12/07 00:58:05;;;;;;;24.57;12.07;;;;;;;2.84;100.00;99990.53;3529695;81;98367;-91
2022/12/07 01:03:08;;;;;;;25.33;11.93;;;;;;;2.87;100.00;99993.95;3533578;81;33736;-90
2022/12/07 01:08:09;;;;;;;24.17;11.23;;;;;;;2.91;100.00;99996.78;3545196;83;33361;-92
2022/12/07 01:13:10;;;;;;;20.80;11.00;;;;;;;2.92;100.00;99991.56;3538644;81;99087;-90
2022/12/07 01:18:11;;;;;;;22.93;11.13;;;;;;;2.95;100.00;99972.66;3504425;83;33184;-91
2022/12/07 01:23:12;;;;;;;24.33;11.20;;;;;;;2.95;100.00;99987.61;3538416;83;98988;-91
2022/12/07 01:28:13;;;;;;;21.75;11.45;;;;;;;2.98;100.00;99978.80;3558537;81;33218;-93
2022/12/07 01:33:13;;;;;;;21.20;10.50;;;;;;;2.95;100.00;99972.66;3546712;81;98561;-92
2022/12/07 01:38:14;;;;;;;20.93;10.20;;;;;;;3.02;100.00;99978.91;3552368;82;31355;-92
2022/12/07 01:43:19;;;;;;;25.43;12.33;;;;;;;3.04;100.00;99981.52;3539085;82;98943;-93
2022/12/07 01:48:25;;;;;;;24.53;12.03;;;;;;;3.04;100.00;99981.52;3546204;81;33309;-92
2022/12/07 01:53:29;;;;;;;22.48;11.63;;;;;;;3.05;100.00;99982.30;3549917;81;98599;-92
2022/12/07 01:58:30;;;;;;;20.30;10.43;;;;;;;3.05;100.00;99972.78;3550688;81;33235;-92
2022/12/07 02:03:39;;;;;;;20.53;10.13;;;;;;;3.06;100.00;99968.38;3547485;81;98648;-91
2022/12/07 02:08:41;;;;;;;21.93;9.90;;;;;;;3.09;100.00;99966.34;3543319;82;33270;-92
2022/12/07 02:13:45;;;;;;;21.85;10.65;;;;;;;3.09;100.00;99954.12;3540106;81;98411;-92
2022/12/07 02:19:26;;;;;;;18.90;9.20;;;;;;;3.11;100.00;99960.58;3557731;81;26407;-92
2022/12/07 02:24:56;;;;;;;17.37;9.40;;;;;;;3.11;100.00;99953.78;3555282;81;98569;-92
2022/12/07 02:30:05;;;;;;;18.80;9.27;;;;;;;3.09;100.00;99950.59;3548060;81;26644;-90
2022/12/07 02:35:20;;;;;;;18.37;9.53;;;;;;;3.07;100.00;99937.91;3533320;82;98710;-91
2022/12/07 02:40:38;;;;;;;15.37;8.00;;;;;;;3.06;100.00;99937.69;3554932;82;26466;-92
2022/12/07 02:45:41;;;;;;;17.57;7.80;;;;;;;3.03;100.00;99936.44;3534200;82;98470;-93
2022/12/07 02:50:52;;;;;;;14.37;7.37;;;;;;;3.02;100.00;99934.05;3556409;82;33355;-92
2022/12/07 02:55:53;;;;;;;17.55;8.75;;;;;;;3.01;100.00;99927.04;3540534;81;98350;-92
2022/12/07 03:01:17;;;;;;;19.67;8.70;;;;;;;2.99;100.00;99921.94;3561571;82;33198;-93
2022/12/07 03:06:23;;;;;;;15.70;8.40;;;;;;;3.00;100.00;99933.03;3547408;80;98647;-92
2022/12/07 03:11:34;;;;;;;;;;;;;;;2.97;100.00;99936.44;3560256;81;26436;-92
2022/12/07 03:16:43;;;;;;;15.50;7.70;;;;;;;2.96;100.00;99943.56;3549831;81;84317;-92
2022/12/07 03:21:55;;;;;;;13.20;7.57;;;;;;;2.95;100.00;99940.63;3550927;81;25959;-92
2022/12/07 03:27:10;;;;;;;15.95;8.00;;;;;;;2.95;100.00;99937.91;3547446;81;98830;-92
2022/12/07 03:32:35;;;;;;;16.53;9.50;;;;;;;2.93;100.00;99945.59;3551820;82;31863;-91
2022/12/07 03:37:59;;;;;;;15.18;7.60;;;;;;;2.92;100.00;99941.29;3547276;81;98562;-92
2022/12/07 03:43:03;;;;;;;13.97;6.70;;;;;;;2.90;100.00;99940.84;3547134;82;26598;-90
2022/12/07 03:48:25;;;;;;;13.35;6.60;;;;;;;2.86;100.00;99937.20;3547310;82;98037;-92
2022/12/07 03:53:31;;;;;;;13.17;6.23;;;;;;;2.85;100.00;99929.61;3549654;82;98761;-92
2022/12/07 03:58:34;;;;;;;12.78;6.45;;;;;;;2.83;100.00;99925.09;3526646;82;25907;-94
2022/12/07 04:03:35;;;;;;;14.77;6.90;;;;;;;2.80;100.00;99923.61;3555417;81;98506;-93
2022/12/07 04:08:36;;;;;;;13.97;7.07;;;;;;;2.77;100.00;99923.72;3564435;82;33268;-93
2022/12/07 04:14:18;;;;;;;13.65;6.97;;;;;;;2.76;100.00;99931.66;3556581;82;98764;-93
2022/12/07 04:18:40;;;;;;;15.97;8.27;;;;;;;2.73;100.00;99927.46;3553724;81;25962;-94
2022/12/07 04:23:41;;;;;;;20.63;9.43;;;;;;;2.71;100.00;99916.92;3551552;81;98707;-95
2022/12/07 04:28:42;;;;;;;14.63;7.77;;;;;;;2.68;100.00;99905.94;3555421;82;33227;-93
2022/12/07 04:33:42;;;;;;;17.63;8.93;;;;;;;2.64;100.00;99894.96;3545157;81;98417;-94
2022/12/07 04:38:43;;;;;;;16.73;8.43;;;;;;;2.63;100.00;99912.37;3549406;82;33370;-95
2022/12/07 04:43:44;;;;;;;18.50;8.80;;;;;;;2.60;100.00;99908.98;3543133;81;98633;-92
2022/12/07 04:48:45;;;;;;;21.20;10.50;;;;;;;2.61;100.00;99908.39;3565183;81;33254;-94
2022/12/07 04:53:46;;;;;;;17.93;9.87;;;;;;;2.60;100.00;99893.23;3534607;82;98493;-95
2022/12/07 04:58:48;;;;;;;17.45;10.00;;;;;;;2.60;100.00;99895.95;3566511;81;32405;-94
2022/12/07 05:03:49;;;;;;;18.67;9.80;;;;;;;2.59;100.00;99880.79;3552286;81;98879;-93
2022/12/07 05:08:50;;;;;;;19.07;10.80;;;;;;;2.60;100.00;99869.59;3538868;82;31552;-93
2022/12/07 05:13:51;;;;;;;18.87;9.77;;;;;;;2.59;100.00;99870.73;3538989;81;98936;-95
2022/12/07 05:18:51;;;;;;;19.23;9.53;;;;;;;2.58;100.00;99869.12;3559776;81;31740;-93
2022/12/07 05:23:52;;;;;;;16.75;9.23;;;;;;;2.62;100.00;99874.11;3547967;82;98589;-95
2022/12/07 05:28:56;;;;;;;20.30;10.87;;;;;;;2.63;100.00;99867.55;3551555;81;31640;-94
2022/12/07 05:33:56;;;;;;;19.73;10.27;;;;;;;2.60;100.00;99861.45;3552893;82;98794;-94
2022/12/07 05:38:58;;;;;;;20.90;11.40;;;;;;;2.63;100.00;99869.48;3556723;81;31553;-95
2022/12/07 05:43:59;;;;;;;17.97;9.80;;;;;;;2.61;100.00;99864.38;3558405;81;98592;-96
2022/12/07 05:49:00;;;;;;;20.00;10.83;;;;;;;2.62;100.00;99868.68;3539094;81;31375;-96
2022/12/07 05:54:01;;;;;;;20.97;10.63;;;;;;;2.62;100.00;99865.19;3531769;81;98840;-95
2022/12/07 06:04:24;;;;;;;20.55;8.88;;;;;;;2.61;100.00;99855.43;3541399;81;98806;-95
2022/12/07 06:09:27;;;;;;;16.73;8.77;;;;;;;2.61;100.00;99858.95;3556080;81;29372;-93
2022/12/07 06:14:28;;;;;;;15.05;7.90;;;;;;;2.59;100.00;99859.86;3544607;81;98881;-95
2022/12/07 06:19:29;;;;;;;13.93;6.90;;;;;;;2.58;100.00;99862.91;3563186;82;31709;-96
2022/12/07 06:24:31;;;;;;;17.37;8.07;;;;;;;2.56;100.00;99859.75;3525657;82;98444;-96
2022/12/07 06:29:33;;;;;;;12.70;7.10;;;;;;;2.54;100.00;99855.20;3562168;82;31156;-96
2022/12/07 06:34:34;;;;;;;13.93;7.10;;;;;;;2.51;100.00;99856.67;3541849;81;98341;-96
2022/12/07 06:39:35;;;;;;;16.03;7.73;;;;;;;2.49;100.00;99851.34;3554328;82;31731;-93
2022/12/07 06:44:36;;;;;;;15.93;7.60;;;;;;;2.48;100.00;99852.48;3555618;82;98672;-96
2022/12/07 06:49:36;;;;;;;15.60;8.57;;;;;;;2.50;100.00;99850.20;3564715;82;31678;-95
2022/12/07 06:54:37;;;;;;;15.30;7.63;;;;;;;2.50;100.00;99844.23;3552441;81;98664;-90
2022/12/07 06:59:38;;;;;;;15.37;7.00;;;;;;;2.48;100.00;99841.06;3550135;82;31629;-90
2022/12/07 07:04:39;;;;;;;15.80;7.67;;;;;;;2.47;100.00;99844.89;3538230;81;98375;-89
2022/12/07 07:09:41;;;;;;;17.47;9.43;;;;;;;2.40;100.00;99837.87;3548183;81;30917;-90
2022/12/07 07:14:42;;;;;;;15.17;7.53;;;;;;;2.45;100.00;99845.80;3541155;81;98948;-92
2022/12/07 07:19:43;;;;;;;14.07;7.13;;;;;;;2.44;100.00;99840.70;3555825;81;31628;-90
2022/12/07 07:24:45;;;;;;;13.30;6.70;;;;;;;2.45;100.00;99843.63;3547303;81;98706;-92
2022/12/07 07:29:46;;;;;;;12.47;6.83;;;;;;;2.45;100.00;99832.77;3539093;82;31169;-91
2022/12/07 07:34:47;;;;;;;23.53;9.77;;;;;;;2.45;100.00;99832.77;3544527;81;98763;-90
2022/12/07 07:39:48;;;;;;;21.10;13.38;;;;;;;2.44;100.00;99833.36;3554385;82;31349;-90
2022/12/07 07:44:49;;;;;;;16.77;8.70;;;;;;;2.42;100.00;99825.32;3551983;81;99832;-89
2022/12/07 07:49:51;;;;;;;13.17;6.87;;;;;;;2.42;100.00;99825.32;3535972;81;35174;-90
2022/12/07 07:54:52;;;;;;;17.67;8.25;;;;;;;2.40;100.00;99824.29;3528866;81;98406;-89
2022/12/07 07:59:53;;;;;;;12.37;6.50;;;;;;;2.41;100.00;99825.87;3549734;82;35534;-89
2022/12/07 08:04:54;;;;;;;13.97;6.70;;;;;;;2.41;100.00;99829.17;3543552;81;98513;-90
2022/12/07 08:09:58;;;;;;;13.10;6.33;;;;;;;2.41;100.00;99824.52;3549635;81;35418;-89
2022/12/07 08:15:01;;;;;;;10.70;5.00;;;;;;;2.40;100.00;99816.73;3541223;82;98974;-92
2022/12/07 08:20:08;;;;;;;13.67;5.80;;;;;;;2.43;100.00;99805.98;3557072;81;35459;-91
2022/12/07 08:25:12;;;;;;;12.43;6.53;;;;;;;2.46;100.00;99809.94;3547216;81;98756;-89
2022/12/07 08:30:13;;;;;;;14.37;6.20;;;;;;;2.45;100.00;99808.33;3551439;81;26647;-89
2022/12/07 08:35:15;;;;;;;17.77;7.97;;;;;;;2.43;100.00;99810.05;3529503;81;98356;-91
2022/12/07 08:40:20;;;;;;;51.90;20.10;;;;;;;2.44;100.00;99808.92;3558570;81;25911;-91
2022/12/07 08:45:22;;;;;;;38.98;17.73;;;;;;;2.38;100.00;99808.91;3552145;81;98890;-91
2022/12/07 08:50:24;;;;;;;20.80;10.70;;;;;;;2.31;100.00;99802.45;3550649;81;34857;-87
2022/12/07 08:55:27;;;;;;;30.93;18.73;;;;;;;2.23;100.00;99808.20;3529696;82;98622;-88
2022/12/07 09:00:27;;;;;;;29.75;14.55;;;;;;;2.13;100.00;99797.77;3551077;81;30827;-89
2022/12/07 09:05:28;;;;;;;24.70;11.87;;;;;;;2.09;100.00;99793.36;3551027;81;98501;-89
2022/12/07 09:10:30;;;;;;;24.80;12.67;;;;;;;2.01;100.00;99782.83;3549620;81;35225;-89
2022/12/07 09:15:31;;;;;;;29.43;12.33;;;;;;;1.99;100.00;99778.31;3523687;82;99074;-90
2022/12/07 09:20:32;;;;;;;23.27;11.50;;;;;;;1.91;100.00;99769.68;3553772;82;35090;-89
2022/12/07 09:25:34;;;;;;;23.77;12.97;;;;;;;1.92;100.00;99769.13;3549338;82;98926;-88
2022/12/07 09:30:37;;;;;;;25.60;13.03;;;;;;;1.86;100.00;99763.11;3549360;82;34910;-88
2022/12/07 09:35:37;;;;;;;28.20;13.60;;;;;;;1.83;100.00;99758.92;3535759;81;98729;-89
2022/12/07 09:40:39;;;;;;;27.90;14.27;;;;;;;1.83;100.00;99755.66;3549471;81;35119;-87
2022/12/07 09:45:39;;;;;;;33.02;14.75;;;;;;;1.80;100.00;99751.47;3537535;81;99276;-88
2022/12/07 09:50:40;;;;;;;29.67;16.17;;;;;;;1.78;100.00;99742.86;3523937;83;34846;-87
2022/12/07 09:55:43;;;;;;;31.00;14.75;;;;;;;1.75;100.00;99738.12;3510128;81;99405;-88
2022/12/07 10:00:45;;;;;;;29.03;16.33;;;;;;;1.71;100.00;99738.55;3548576;81;25969;-87
2022/12/07 10:05:50;;;;;;;32.30;16.45;;;;;;;1.67;100.00;99722.71;3537954;82;99025;-87
2022/12/07 10:10:56;;;;;;;32.87;16.17;;;;;;;1.67;100.00;99720.00;3546276;83;27182;-88
2022/12/07 10:15:57;;;;;;;31.60;16.40;;;;;;;1.64;100.00;99717.97;3547934;82;98909;-88
2022/12/07 10:21:10;;;;;;;27.83;15.23;;;;;;;1.62;100.00;99714.23;3546732;83;34940;-87
2022/12/07 10:26:34;;;;;;;29.67;15.38;;;;;;;1.63;100.00;99704.16;3546522;82;98656;-87
2022/12/07 10:31:39;;;;;;;33.23;14.97;;;;;;;1.62;100.00;99695.80;3547765;82;26633;-86
2022/12/07 10:36:40;;;;;;;30.15;15.93;;;;;;;1.57;100.00;99696.02;3550148;81;98646;-87
2022/12/07 10:42:00;;;;;;;26.00;13.00;;;;;;;1.58;100.00;99702.47;3551250;82;35446;-87
2022/12/07 10:47:44;;;;;;;30.00;15.20;;;;;;;1.58;100.00;99690.84;3530740;81;98817;-88
2022/12/07 10:53:11;;;;;;;24.70;12.07;;;;;;;1.57;100.00;99693.30;3563807;81;26019;-87
2022/12/07 10:58:46;;;;;;;25.72;13.65;;;;;;;1.56;100.00;99673.55;3543636;81;26958;-88
2022/12/07 11:03:59;;;;;;;29.20;14.70;;;;;;;1.57;100.00;99670.25;3547790;80;98715;-89
2022/12/07 11:09:21;;;;;;;30.47;16.33;;;;;;;1.58;100.00;99660.44;3556437;82;27959;-88
2022/12/07 11:14:48;;;;;;;24.02;13.83;;;;;;;1.59;100.00;99654.46;3556303;82;98896;-88
2022/12/07 11:20:06;;;;;;;30.57;14.90;;;;;;;1.59;100.00;99637.61;3554933;81;26428;-89
2022/12/07 11:25:32;;;;;;;28.57;14.93;;;;;;;1.56;100.00;99643.72;3550676;80;98961;-89
2022/12/07 11:31:21;;;;;;;29.87;14.97;;;;;;;1.45;100.00;99626.30;3537960;82;25859;-88
2022/12/07 11:36:41;;;;;;;28.50;14.93;;;;;;;1.44;100.00;99627.44;3556257;81;98872;-88
2022/12/07 11:41:45;;;;;;;26.30;14.97;;;;;;;1.39;100.00;99623.58;3557156;82;25849;-86
2022/12/07 11:47:14;;;;;;;25.40;13.77;;;;;;;1.39;100.00;99618.16;3549661;81;98449;-86
2022/12/07 11:52:39;;;;;;;26.23;13.00;;;;;;;1.39;100.00;99616.00;3555358;81;25890;-89
2022/12/07 11:57:47;;;;;;;24.87;13.00;;;;;;;1.39;100.00;99611.94;3554500;81;98928;-89
2022/12/07 12:03:15;;;;;;;28.50;14.10;;;;;;;1.41;100.00;99609.67;3552172;81;26135;-88
2022/12/07 12:08:34;;;;;;;31.43;14.93;;;;;;;1.43;100.00;99602.78;3596910;81;26429;-88
2022/12/07 12:13:56;;;;;;;25.27;13.63;;;;;;;1.47;100.00;99607.77;3551478;81;98853;-86
2022/12/07 12:19:49;;;;;;;31.43;14.77;;;;;;;1.52;100.00;99601.33;3557746;82;26073;-89
2022/12/07 12:24:54;;;;;;;29.97;13.40;;;;;;;1.55;100.00;99596.05;3542231;82;99134;-88
2022/12/07 12:30:05;;;;;;;25.67;13.80;;;;;;;1.60;100.00;99593.67;3556554;81;26486;-89
2022/12/07 12:35:31;;;;;;;30.67;14.77;;;;;;;1.60;100.00;99587.66;3552256;81;98578;-87
2022/12/07 12:40:39;;;;;;;24.53;12.60;;;;;;;1.66;100.00;99583.63;3551655;81;32616;-86
2022/12/07 12:45:40;;;;;;;23.42;11.65;;;;;;;1.71;100.00;99590.16;3556181;81;98897;-88
2022/12/07 12:50:41;;;;;;;22.57;11.07;;;;;;;1.80;100.00;99580.00;3563153;81;34808;-86
2022/12/07 12:56:17;;;;;;;21.57;11.13;;;;;;;1.88;100.00;99582.37;3556930;80;98781;-92
2022/12/07 13:01:40;;;;;;;22.90;12.13;;;;;;;1.95;100.00;99577.16;3558713;81;26427;-88
2022/12/07 13:06:42;;;;;;;21.00;10.70;;;;;;;1.98;100.00;99575.13;3557952;81;98665;-88
2022/12/07 13:11:45;;;;;;;20.90;10.33;;;;;;;2.04;100.00;99584.07;3563719;81;25977;-86
2022/12/07 13:16:49;;;;;;;19.13;9.43;;;;;;;2.09;100.00;99597.37;3563172;81;98408;-87
2022/12/07 13:21:49;;;;;;;19.40;10.03;;;;;;;2.13;100.00;99596.94;3535251;81;28089;-86
2022/12/07 13:26:55;;;;;;;16.70;8.50;;;;;;;2.15;100.00;99602.83;3558401;81;98654;-84
2022/12/07 13:31:58;;;;;;;16.57;8.57;;;;;;;2.17;100.00;99608.70;3573346;81;46194;-87
2022/12/07 13:37:30;;;;;;;17.33;8.27;;;;;;;2.15;100.00;99611.53;3562234;81;98353;-86
2022/12/07 13:42:35;;;;;;;16.13;7.83;;;;;;;2.12;100.00;99614.35;3570184;81;27895;-88
2022/12/07 13:47:50;;;;;;;14.70;7.65;;;;;;;2.09;100.00;99613.66;3563527;81;98162;-86
2022/12/07 13:52:54;;;;;;;14.60;7.17;;;;;;;2.11;100.00;99628.26;3551184;81;26668;-85
2022/12/07 13:57:56;;;;;;;15.93;8.73;;;;;;;2.10;100.00;99630.20;3570972;81;98377;-86
2022/12/07 14:03:00;;;;;;;15.30;7.43;;;;;;;2.08;100.00;99633.02;3577804;81;26353;-86
2022/12/07 14:08:12;;;;;;;15.77;7.63;;;;;;;2.06;100.00;99648.83;3554564;81;98373;-85
2022/12/07 14:13:40;;;;;;;14.63;6.83;;;;;;;1.99;100.00;99645.91;3562560;81;98856;-86
2022/12/07 14:18:41;;;;;;;13.80;6.97;;;;;;;1.91;100.00;99645.46;3551424;81;25935;-85
2022/12/07 14:23:43;;;;;;;15.93;7.83;;;;;;;1.81;100.00;99651.33;3552052;81;99031;-85
2022/12/07 14:28:44;;;;;;;12.70;6.47;;;;;;;1.76;100.00;99658.33;3550072;81;34937;-86
2022/12/07 14:33:45;;;;;;;14.80;7.97;;;;;;;1.70;100.00;99660.45;3556905;81;98278;-85
2022/12/07 14:38:46;;;;;;;15.60;7.77;;;;;;;1.69;100.00;99662.94;3572874;81;34782;-85
2022/12/07 14:43:48;;;;;;;18.03;10.03;;;;;;;1.67;100.00;99659.78;3551691;81;98643;-86
2022/12/07 14:48:49;;;;;;;16.97;9.43;;;;;;;1.55;100.00;99643.50;3570577;81;34802;-86
2022/12/07 14:53:52;;;;;;;17.87;10.43;;;;;;;1.70;100.00;99674.59;3564784;81;98454;-86
2022/12/07 14:58:53;;;;;;;19.93;10.63;;;;;;;1.73;100.00;99668.48;3564428;81;25675;-87
2022/12/07 15:03:54;;;;;;;16.27;8.97;;;;;;;1.71;100.00;99670.16;3568051;81;98567;-86
2022/12/07 15:08:55;;;;;;;19.33;9.50;;;;;;;1.68;100.00;99668.14;3574317;81;34824;-86
2022/12/07 15:14:08;;;;;;;18.15;9.25;;;;;;;1.64;100.00;99673.23;3559449;81;98417;-86
2022/12/07 15:19:14;;;;;;;16.73;8.53;;;;;;;1.57;100.00;99674.32;3565550;81;26531;-86
2022/12/07 15:24:15;;;;;;;17.90;8.25;;;;;;;1.51;100.00;99686.52;3563991;81;98765;-86
2022/12/07 15:29:16;;;;;;;15.43;7.60;;;;;;;1.44;100.00;99688.98;3567328;81;34901;-86
2022/12/07 15:34:17;;;;;;;17.90;8.20;;;;;;;1.39;100.00;99690.55;3568158;81;98873;-86
2022/12/07 15:39:18;;;;;;;12.80;7.10;;;;;;;1.33;100.00;99700.82;3569180;81;34896;-85
2022/12/07 15:49:38;;;;;;;15.50;7.83;;;;;;;1.24;100.00;99690.61;3560762;81;26112;-85
2022/12/07 15:54:39;;;;;;;14.50;8.57;;;;;;;1.21;100.00;99697.27;3557695;81;98703;-85
2022/12/07 15:59:40;;;;;;;14.00;7.27;;;;;;;1.18;100.00;99690.59;3573142;81;26452;-84
2022/12/07 16:04:40;;;;;;;13.60;6.50;;;;;;;1.18;100.00;99692.50;3562994;81;98616;-84
2022/12/07 16:09:46;;;;;;;15.90;7.70;;;;;;;1.16;100.00;99696.88;3581937;81;34841;-86
2022/12/07 16:14:47;;;;;;;11.95;5.75;;;;;;;1.14;100.00;99701.05;3562405;81;98803;-85
2022/12/07 16:19:48;;;;;;;14.73;6.73;;;;;;;1.11;100.00;99696.31;3563655;81;34745;-86
2022/12/07 16:24:49;;;;;;;12.53;5.33;;;;;;;1.11;100.00;99707.16;3571483;81;98542;-86
2022/12/07 16:29:49;;;;;;;11.50;5.30;;;;;;;1.10;100.00;99694.73;3563793;81;35298;-86
2022/12/07 16:34:50;;;;;;;12.47;5.72;;;;;;;1.08;100.00;99701.03;3562660;81;98726;-86
2022/12/07 16:39:51;;;;;;;16.47;6.77;;;;;;;1.05;100.00;99702.48;3564576;81;34925;-87
2022/12/07 16:44:52;;;;;;;14.23;7.13;;;;;;;1.03;100.00;99702.58;3551593;81;98348;-86
2022/12/07 16:49:53;;;;;;;15.60;7.08;;;;;;;0.96;100.00;99695.00;3560830;81;34816;-85
2022/12/07 16:54:54;;;;;;;14.07;6.70;;;;;;;0.96;100.00;99692.84;3569502;81;98793;-86
2022/12/07 16:59:55;;;;;;;12.53;5.67;;;;;;;0.93;100.00;99691.59;3574745;81;32467;-87
2022/12/07 17:04:55;;;;;;;14.10;6.23;;;;;;;0.90;100.00;99690.92;3573467;81;98669;-86
2022/12/07 17:09:56;;;;;;;17.77;8.07;;;;;;;0.87;100.00;99690.20;3554649;81;32394;-87
2022/12/07 17:20:17;;;;;;;13.50;6.42;;;;;;;0.84;100.00;99692.23;3542775;81;35645;-87
2022/12/07 17:25:18;;;;;;;14.80;5.85;;;;;;;0.82;100.00;99682.86;3554517;81;99411;-85
2022/12/07 17:30:19;;;;;;;17.37;8.40;;;;;;;0.85;100.00;99677.57;3569935;81;32496;-87
2022/12/07 17:35:20;;;;;;;18.50;8.17;;;;;;;0.85;100.00;99682.98;3551858;81;98653;-86
2022/12/07 17:40:21;;;;;;;15.00;6.70;;;;;;;0.86;100.00;99685.92;3565277;81;32536;-86
2022/12/07 17:45:21;;;;;;;17.52;7.40;;;;;;;0.87;100.00;99684.80;3558234;81;98661;-87
2022/12/07 17:53:09;;;;;;;14.90;7.53;;;;;;;0.89;100.00;99683.89;3568032;81;32548;-86
2022/12/07 17:55:25;;;;;;;22.90;7.25;;;;;;;0.90;100.00;99689.56;3562010;81;98357;-86
2022/12/07 18:00:25;;;;;;;13.20;7.03;;;;;;;0.92;100.00;99685.95;3568052;81;33075;-86
2022/12/07 18:05:26;;;;;;;17.93;7.80;;;;;;;0.92;100.00;99691.91;3560772;81;98626;-86
2022/12/07 18:10:27;;;;;;;16.97;8.10;;;;;;;0.92;100.00;99686.50;3573657;81;33069;-87
2022/12/07 18:15:28;;;;;;;16.73;7.67;;;;;;;0.91;100.00;99688.98;3556518;81;98350;-87
2022/12/07 18:20:28;;;;;;;16.65;7.33;;;;;;;0.90;100.00;99687.41;3567148;81;32166;-88
2022/12/07 18:25:29;;;;;;;23.87;9.80;;;;;;;0.88;100.00;99688.30;3570404;81;98339;-88
2022/12/07 18:30:30;;;;;;;22.30;11.10;;;;;;;0.88;100.00;99685.59;3562467;81;26396;-87
2022/12/07 18:35:33;;;;;;;25.13;11.73;;;;;;;0.85;100.00;99682.98;3564039;81;98823;-88
2022/12/07 18:40:39;;;;;;;44.90;21.20;;;;;;;0.82;100.00;99680.92;3563514;81;26981;-87
2022/12/07 18:45:47;;;;;;;22.77;11.50;;;;;;;0.79;100.00;99688.37;3556612;81;99415;-87
2022/12/07 18:50:46;;;;;;;21.97;10.53;;;;;;;0.78;100.00;99686.77;3562758;81;25858;-87
2022/12/07 18:55:47;;;;;;;23.80;9.90;;;;;;;0.75;100.00;99691.50;3554391;81;98957;-87
2022/12/07 19:00:48;;;;;;;17.40;7.57;;;;;;;0.72;100.00;99690.02;3566068;81;25976;-86
2022/12/07 19:05:49;;;;;;;25.17;8.90;;;;;;;0.69;100.00;99691.47;3558774;81;98871;-87
2022/12/07 19:10:50;;;;;;;17.93;7.03;;;;;;;0.65;100.00;99695.95;3566205;81;25958;-87
2022/12/07 19:15:51;;;;;;;16.27;6.97;;;;;;;0.61;100.00;99694.23;3555866;81;99061;-89
2022/12/07 19:20:52;;;;;;;20.63;7.27;;;;;;;0.57;100.00;99690.05;3577466;81;25959;-89
2022/12/07 19:25:54;;;;;;;17.60;6.97;;;;;;;0.55;100.00;99686.86;3561701;81;98881;-88
2022/12/07 19:30:54;;;;;;;21.23;8.37;;;;;;;0.54;100.00;99687.17;3573485;81;25986;-89
2022/12/07 19:35:55;;;;;;;16.40;7.37;;;;;;;0.52;100.00;99691.59;3553162;81;98677;-88
2022/12/07 19:41:32;;;;;;;12.27;5.90;;;;;;;0.50;100.00;99699.23;3555514;81;25936;-90
2022/12/07 19:46:15;;;;;;;15.90;6.23;;;;;;;0.48;100.00;99714.20;3558093;81;98867;-89
2022/12/07 19:51:17;;;;;;;15.13;6.30;;;;;;;0.45;100.00;99703.48;3561444;81;27391;-89
2022/12/07 19:56:21;;;;;;;13.43;6.20;;;;;;;0.44;100.00;99700.54;3562930;81;122677;-90
2022/12/07 20:01:22;;;;;;;17.20;5.40;;;;;;;0.41;100.00;99701.76;3568931;81;28346;-89
2022/12/07 20:06:24;;;;;;;13.20;4.97;;;;;;;0.36;100.00;99700.05;3552998;81;98920;-91
2022/12/07 20:16:44;;;;;;;12.57;4.90;;;;;;;0.27;100.00;99698.48;3554331;81;98504;-90
2022/12/07 20:21:45;;;;;;;12.60;4.53;;;;;;;0.22;100.00;99699.47;3565198;81;25799;-90
2022/12/07 20:26:49;;;;;;;13.87;5.27;;;;;;;0.19;100.00;99697.44;3560417;81;98479;-88
2022/12/07 20:31:53;;;;;;;18.87;7.30;;;;;;;0.15;100.00;99707.31;3568101;81;28309;-88
2022/12/07 20:36:54;;;;;;;18.32;5.20;;;;;;;0.12;100.00;99701.77;3559462;81;98522;-90
2022/12/07 20:47:15;;;;;;;15.60;5.67;;;;;;;0.08;100.00;99711.64;3566476;81;98405;-90
2022/12/07 20:52:19;;;;;;;11.40;3.43;;;;;;;0.08;100.00;99721.11;3574695;81;26403;-90
2022/12/07 20:57:18;;;;;;;17.27;5.43;;;;;;;0.08;100.00;99721.11;3561091;81;98539;-92
2022/12/07 21:02:19;;;;;;;17.67;5.45;;;;;;;0.10;100.00;99723.73;3565946;81;26358;-89
2022/12/07 21:07:20;;;;;;;19.07;6.73;;;;;;;0.12;100.00;99730.17;3554475;81;98442;-91
2022/12/07 21:12:20;;;;;;;12.77;4.93;;;;;;;0.14;100.00;99724.67;3559057;81;25950;-90
2022/12/07 21:17:21;;;;;;;16.23;6.23;;;;;;;0.17;100.00;99726.70;3570890;81;98661;-91
2022/12/07 21:22:22;;;;;;;12.17;4.00;;;;;;;0.18;100.00;99729.64;3557049;81;25874;-91
2022/12/07 21:27:23;;;;;;;15.73;3.57;;;;;;;0.19;100.00;99734.50;3565447;81;98344;-92
2022/12/07 21:32:24;;;;;;;8.97;3.10;;;;;;;0.21;100.00;99733.06;3559102;81;25869;-92
2022/12/07 21:37:24;;;;;;;10.00;3.40;;;;;;;0.23;100.00;99744.92;3545280;81;98011;-92
2022/12/07 21:42:26;;;;;;;10.03;2.67;;;;;;;0.25;100.00;99749.44;3552285;81;33310;-91
2022/12/07 21:47:30;;;;;;;10.60;3.87;;;;;;;0.29;100.00;99762.56;3558184;81;98227;-91
2022/12/07 21:52:31;;;;;;;9.90;2.73;;;;;;;0.30;100.00;99765.50;3566682;81;26583;-89
2022/12/07 21:57:32;;;;;;;11.87;3.90;;;;;;;0.31;100.00;99767.88;3567843;81;97931;-90
2022/12/07 22:02:33;;;;;;;13.20;3.65;;;;;;;0.34;100.00;99766.44;3565015;81;33849;-93
2022/12/07 22:07:33;;;;;;;10.50;2.90;;;;;;;0.36;100.00;99766.35;3558910;81;98449;-93
2022/12/07 22:12:34;;;;;;;8.60;3.20;;;;;;;0.38;100.00;99774.92;3560836;81;32562;-91
2022/12/07 22:17:35;;;;;;;7.40;3.00;;;;;;;0.36;100.00;99770.95;3561275;81;98262;-90
2022/12/07 22:22:36;;;;;;;8.60;3.00;;;;;;;0.39;100.00;99771.67;3582371;81;32307;-90
2022/12/07 22:27:37;;;;;;;9.53;3.17;;;;;;;0.41;100.00;99785.66;3558053;81;98438;-93
2022/12/07 22:32:38;;;;;;;10.93;3.60;;;;;;;0.41;100.00;99784.31;3565466;81;33303;-89
2022/12/07 22:37:39;;;;;;;11.93;3.50;;;;;;;0.44;100.00;99775.55;3560391;81;98668;-93
2022/12/07 22:42:40;;;;;;;11.70;3.93;;;;;;;0.43;100.00;99783.41;3552954;81;31534;-91
2022/12/07 22:47:41;;;;;;;11.30;3.70;;;;;;;0.42;100.00;99781.83;3550569;81;98511;-90
2022/12/07 22:52:41;;;;;;;9.73;3.90;;;;;;;0.39;100.00;99775.73;3573526;81;31790;-92
2022/12/07 22:57:42;;;;;;;8.93;3.70;;;;;;;0.36;100.00;99769.61;3553871;81;98534;-93
2022/12/07 23:02:44;;;;;;;11.10;4.17;;;;;;;0.31;100.00;99777.90;3573223;81;32262;-93
2022/12/07 23:07:45;;;;;;;11.10;3.73;;;;;;;0.26;100.00;99772.67;3538678;81;98399;-92
2022/12/07 23:18:05;;;;;;;11.27;3.70;;;;;;;0.12;100.00;99774.81;3557112;81;98006;-93
2022/12/07 23:23:05;;;;;;;11.13;3.80;;;;;;;0.07;100.00;99780.39;3559902;81;31610;-91
2022/12/07 23:28:06;;;;;;;9.73;4.43;;;;;;;0.03;100.00;99782.95;3557858;81;98069;-91
2022/12/07 23:33:07;;;;;;;10.67;3.67;;;;;;;-0.02;100.00;99789.66;3555469;81;31662;-91
2022/12/07 23:38:08;;;;;;;9.27;4.00;;;;;;;-0.06;100.00;99788.13;3538846;81;98289;-89
2022/12/07 23:43:09;;;;;;;8.53;3.20;;;;;;;-0.09;100.00;99792.27;3583273;81;98596;-89
2022/12/07 23:48:09;;;;;;;8.40;3.40;;;;;;;-0.17;100.00;99776.64;3503798;82;29796;-92
2022/12/07 23:53:10;;;;;;;8.93;3.00;;;;;;;-0.15;100.00;99780.03;3503367;80;98981;-91
2022/12/07 23:58:11;;;;;;;10.40;3.20;;;;;;;-0.16;100.00;99793.33;3562429;81;34879;-89
